Time;durP1;ratioP1;P1;durP2;ratioP2;P2;SDS_P1;SDS_P2;PMS_P1;PMS_P2;Temp;Humidity;BMP_temperature;BMP_pressure;BME280_temperature;BME280_humidity;BME280_pressure;Samples;Min_cycle;Max_cycle;Signal;HPM_P1;HPM_P2
2022/08/05 00:01:48;;;;;;;2.83;0.50;;;20.00;99.90;;;;;;5094205;28;20481;-74
2022/08/05 00:04:15;;;;;;;4.78;0.25;;;19.80;99.90;;;;;;5094103;28;20028;-74
2022/08/05 00:06:41;;;;;;;6.47;0.50;;;20.00;99.90;;;;;;5092647;28;20020;-74
2022/08/05 00:09:06;;;;;;;2.55;0.28;;;19.80;99.90;;;;;;5092672;28;20028;-74
2022/08/05 00:11:32;;;;;;;2.97;0.30;;;19.80;99.90;;;;;;5094069;28;20086;-74
2022/08/05 00:13:57;;;;;;;3.05;0.10;;;19.80;99.90;;;;;;5093800;28;20111;-74
2022/08/05 00:16:23;;;;;;;2.88;0.57;;;19.80;99.90;;;;;;5092579;28;20012;-74
2022/08/05 00:18:49;;;;;;;4.70;0.17;;;19.70;99.90;;;;;;5094017;28;20030;-74
2022/08/05 00:21:16;;;;;;;1.05;0.05;;;19.70;99.90;;;;;;5093847;28;20020;-74
2022/08/05 00:23:43;;;;;;;2.17;0.10;;;19.70;99.90;;;;;;5092622;28;20500;-74
2022/08/05 00:26:09;;;;;;;5.18;0.28;;;19.70;99.90;;;;;;5092669;28;20115;-74
2022/08/05 00:28:35;;;;;;;5.50;0.20;;;19.60;99.90;;;;;;5093779;28;20016;-74
2022/08/05 00:31:02;;;;;;;2.60;0.50;;;19.60;99.90;;;;;;5093686;28;20075;-74
2022/08/05 00:33:28;;;;;;;1.38;0.10;;;19.60;99.90;;;;;;5093953;28;20024;-74
2022/08/05 00:35:54;;;;;;;1.45;0.00;;;19.60;99.90;;;;;;5092544;28;20020;-74
2022/08/05 00:38:19;;;;;;;1.67;0.30;;;19.80;99.90;;;;;;5094448;28;20095;-74
2022/08/05 00:40:51;;;;;;;1.30;0.28;;;19.50;99.90;;;;;;5093544;28;20065;-74
2022/08/05 00:43:17;;;;;;;1.13;0.00;;;19.60;99.90;;;;;;5093928;28;20024;-74
2022/08/05 00:45:43;;;;;;;0.85;0.10;;;19.50;99.90;;;;;;5092870;28;20024;-74
2022/08/05 00:48:11;;;;;;;4.22;0.00;;;19.50;99.90;;;;;;5093907;28;20077;-74
2022/08/05 00:50:39;;;;;;;1.58;0.25;;;19.50;99.90;;;;;;5093726;28;20029;-74
2022/08/05 00:53:05;;;;;;;2.08;0.00;;;19.40;99.90;;;;;;5093713;28;20024;-74
2022/08/05 00:55:31;;;;;;;3.63;0.10;;;19.40;99.90;;;;;;5093463;28;20020;-74
2022/08/05 00:57:56;;;;;;;2.63;0.82;;;19.40;99.90;;;;;;5097714;28;20035;-74
2022/08/05 01:00:22;;;;;;;3.60;0.32;;;19.40;99.90;;;;;;5097286;28;20035;-74
2022/08/05 01:02:47;;;;;;;5.78;0.47;;;19.40;99.90;;;;;;5097393;28;20031;-74
2022/08/05 01:05:13;;;;;;;3.75;0.30;;;19.40;99.90;;;;;;5097517;28;20039;-74
2022/08/05 01:07:39;;;;;;;2.30;0.08;;;19.30;99.90;;;;;;5097545;28;20385;-74
2022/08/05 01:10:07;;;;;;;1.05;0.20;;;19.40;99.90;;;;;;5097297;28;20085;-74
2022/08/05 01:12:33;;;;;;;2.90;0.10;;;19.40;99.90;;;;;;5097740;28;20372;-74
2022/08/05 01:15:04;;;;;;;2.97;0.25;;;19.30;99.90;;;;;;5097123;28;20031;-75
2022/08/05 01:17:42;;;;;;;6.05;0.10;;;19.30;99.90;;;;;;5095850;28;20099;-74
2022/08/05 01:20:29;;;;;;;2.90;0.03;;;19.30;99.90;;;;;;5097335;28;20024;-74
2022/08/05 01:23:14;;;;;;;3.20;0.20;;;19.30;99.90;;;;;;5095983;28;20068;-74
2022/08/05 01:25:58;;;;;;;1.45;0.00;;;19.30;99.90;;;;;;5095832;28;20020;-74
2022/08/05 01:29:19;;;;;;;1.95;0.13;;;19.30;99.90;;;;;;5095649;28;20020;-74
2022/08/05 01:31:49;;;;;;;4.22;0.43;;;19.30;99.90;;;;;;5088199;28;20499;-74
2022/08/05 01:34:22;;;;;;;0.75;0.03;;;19.30;99.90;;;;;;5095670;28;20016;-74
2022/08/05 01:37:31;;;;;;;0.55;0.00;;;19.30;99.90;;;;;;5096831;28;20020;-74
2022/08/05 01:39:58;;;;;;;2.00;0.10;;;19.30;99.90;;;;;;5097121;28;20020;-74
2022/08/05 01:42:25;;;;;;;0.93;0.10;;;19.20;99.90;;;;;;5096589;28;20205;-74
2022/08/05 01:44:54;;;;;;;2.92;0.30;;;19.30;99.90;;;;;;5095353;28;20020;-74
2022/08/05 01:47:22;;;;;;;2.28;0.00;;;19.30;99.90;;;;;;5096773;28;20032;-74
2022/08/05 01:49:50;;;;;;;7.00;0.57;;;19.30;99.90;;;;;;5096436;28;20439;-74
2022/08/05 01:52:18;;;;;;;4.03;0.17;;;19.30;99.90;;;;;;5096301;28;20377;-74
2022/08/05 01:54:48;;;;;;;2.63;0.52;;;19.20;99.90;;;;;;5096575;28;20082;-74
2022/08/05 01:57:22;;;;;;;2.33;0.30;;;19.20;99.90;;;;;;5096079;28;20081;-74
2022/08/05 01:59:50;;;;;;;1.27;0.63;;;19.20;99.90;;;;;;5094865;28;20035;-74
2022/08/05 02:02:18;;;;;;;1.75;0.00;;;19.20;99.90;;;;;;5096211;28;20017;-74
2022/08/05 02:04:45;;;;;;;5.72;0.43;;;19.20;99.90;;;;;;5094913;28;20028;-74
2022/08/05 02:07:10;;;;;;;2.47;0.20;;;19.20;99.90;;;;;;5096320;28;20020;-75
2022/08/05 02:09:36;;;;;;;0.75;0.00;;;19.20;99.90;;;;;;5095808;28;20496;-74
2022/08/05 02:12:19;;;;;;;0.90;0.00;;;19.20;99.90;;;;;;5095986;28;20066;-74
2022/08/05 02:15:14;;;;;;;4.93;0.20;;;19.10;99.90;;;;;;5094807;28;20024;-74
2022/08/05 02:17:52;;;;;;;2.40;0.40;;;19.10;99.90;;;;;;5096579;28;20024;-74
2022/08/05 02:20:21;;;;;;;2.15;0.85;;;19.10;99.90;;;;;;5094839;28;20065;-75
2022/08/05 02:23:00;;;;;;;1.92;0.10;;;19.10;99.90;;;;;;5096118;28;20032;-74
2022/08/05 02:25:30;;;;;;;1.95;0.40;;;19.00;99.90;;;;;;5094157;28;20047;-75
2022/08/05 02:27:57;;;;;;;1.17;0.38;;;19.00;99.90;;;;;;5095115;28;20078;-76
2022/08/05 02:30:25;;;;;;;1.42;0.20;;;19.00;99.90;;;;;;5094029;28;20020;-74
2022/08/05 02:32:53;;;;;;;2.75;0.10;;;18.90;99.90;;;;;;5094591;28;20020;-74
2022/08/05 02:35:20;;;;;;;3.75;0.20;;;18.90;99.90;;;;;;5095613;28;20024;-74
2022/08/05 02:37:46;;;;;;;2.25;0.43;;;18.90;99.90;;;;;;5094526;28;20017;-74
2022/08/05 02:40:17;;;;;;;5.03;0.63;;;18.90;99.90;;;;;;5095502;28;20122;-74
2022/08/05 02:42:44;;;;;;;2.65;0.35;;;19.00;99.90;;;;;;5095960;28;20069;-74
2022/08/05 02:45:11;;;;;;;5.25;0.85;;;18.80;99.90;;;;;;5095828;28;20366;-74
2022/08/05 02:47:37;;;;;;;5.90;0.68;;;18.90;99.90;;;;;;5095371;28;20035;-77
2022/08/05 02:50:05;;;;;;;4.80;0.20;;;18.80;99.90;;;;;;5095211;28;20031;-75
2022/08/05 02:52:32;;;;;;;2.93;0.10;;;18.80;99.90;;;;;;5095251;28;20036;-75
2022/08/05 02:55:04;;;;;;;5.38;0.77;;;18.80;99.90;;;;;;5095228;28;20095;-75
2022/08/05 02:57:30;;;;;;;3.25;0.40;;;18.80;99.90;;;;;;5095423;28;20032;-75
2022/08/05 02:59:56;;;;;;;3.60;0.52;;;18.70;99.90;;;;;;5095835;28;20065;-75
2022/08/05 03:02:26;;;;;;;0.50;0.10;;;18.90;99.90;;;;;;5095544;28;20110;-75
2022/08/05 03:04:53;;;;;;;5.05;0.10;;;18.60;99.90;;;;;;5093915;28;20482;-75
2022/08/05 03:07:19;;;;;;;1.30;0.13;;;18.90;99.90;;;;;;5094050;28;20077;-75
2022/08/05 03:09:45;;;;;;;2.35;0.22;;;18.50;99.90;;;;;;5095023;28;20489;-75
2022/08/05 03:12:32;;;;;;;5.55;0.25;;;18.50;99.90;;;;;;5094834;28;20103;-75
2022/08/05 03:14:58;;;;;;;2.05;0.30;;;18.50;99.90;;;;;;5095304;28;20350;-75
2022/08/05 03:17:23;;;;;;;0.65;0.00;;;18.50;99.90;;;;;;5094664;28;20020;-75
2022/08/05 03:19:49;;;;;;;2.95;0.08;;;18.40;99.90;;;;;;5094396;28;20024;-75
2022/08/05 03:22:14;;;;;;;2.10;0.15;;;18.40;99.90;;;;;;5094991;28;20016;-75
2022/08/05 03:24:44;;;;;;;1.27;0.20;;;18.40;99.90;;;;;;5095086;28;20020;-75
2022/08/05 03:27:10;;;;;;;1.45;0.20;;;18.40;99.90;;;;;;5094984;28;20362;-75
2022/08/05 03:29:39;;;;;;;5.15;0.57;;;18.40;99.90;;;;;;5093351;28;20020;-75
2022/08/05 03:32:06;;;;;;;4.20;0.50;;;18.40;99.90;;;;;;5093366;28;20016;-75
2022/08/05 03:34:32;;;;;;;2.38;0.10;;;18.40;99.90;;;;;;5094938;28;20020;-75
2022/08/05 03:36:59;;;;;;;1.65;0.20;;;18.30;99.90;;;;;;5094758;28;20077;-75
2022/08/05 03:39:24;;;;;;;2.20;0.40;;;18.30;99.90;;;;;;5094485;28;20077;-75
2022/08/05 03:41:50;;;;;;;1.05;0.03;;;18.40;99.90;;;;;;5092989;28;20032;-76
2022/08/05 03:44:15;;;;;;;1.25;0.28;;;18.40;99.90;;;;;;5093367;28;20024;-75
2022/08/05 03:46:41;;;;;;;3.95;0.10;;;18.40;99.90;;;;;;5093217;28;20031;-75
2022/08/05 03:49:06;;;;;;;2.03;0.20;;;18.40;99.90;;;;;;5093339;28;20389;-75
2022/08/05 03:51:37;;;;;;;1.00;0.00;;;18.20;99.90;;;;;;5094130;28;20491;-75
2022/08/05 03:54:07;;;;;;;2.22;0.30;;;18.40;99.90;;;;;;5094323;28;20020;-75
2022/08/05 03:56:40;;;;;;;5.45;0.43;;;18.40;99.90;;;;;;5094225;28;20028;-75
2022/08/05 03:59:09;;;;;;;4.82;0.85;;;18.40;99.90;;;;;;5092748;28;20110;-75
2022/08/05 04:01:41;;;;;;;3.90;0.30;;;18.40;99.90;;;;;;5094035;28;20028;-75
2022/08/05 04:04:09;;;;;;;1.75;0.00;;;18.40;99.90;;;;;;5094765;28;20021;-75
2022/08/05 04:06:35;;;;;;;3.00;0.28;;;18.40;99.90;;;;;;5093994;28;20028;-75
2022/08/05 04:09:05;;;;;;;1.92;0.28;;;18.40;99.90;;;;;;5092655;28;20031;-75
2022/08/05 04:11:31;;;;;;;2.58;0.00;;;18.40;99.90;;;;;;5092881;28;20032;-75
2022/08/05 04:13:58;;;;;;;0.98;0.05;;;18.40;99.90;;;;;;5093052;28;20024;-75
2022/08/05 04:16:24;;;;;;;5.13;0.00;;;18.40;99.90;;;;;;5092902;28;20020;-75
2022/08/05 04:18:50;;;;;;;3.20;0.88;;;18.40;99.90;;;;;;5092745;28;20028;-75
2022/08/05 04:21:15;;;;;;;2.63;0.65;;;18.30;99.90;;;;;;5094182;28;20435;-75
2022/08/05 04:23:42;;;;;;;2.92;0.43;;;18.30;99.90;;;;;;5092640;28;20028;-75
2022/08/05 04:26:07;;;;;;;3.25;0.00;;;18.60;99.90;;;;;;5093983;28;20028;-75
2022/08/05 04:28:33;;;;;;;1.15;0.47;;;18.20;99.90;;;;;;5094142;28;20473;-75
2022/08/05 04:30:59;;;;;;;5.47;1.00;;;18.20;99.90;;;;;;5095907;28;20430;-75
2022/08/05 04:33:25;;;;;;;1.48;0.57;;;18.10;99.90;;;;;;5098009;28;20012;-75
2022/08/05 04:35:51;;;;;;;4.13;0.10;;;18.10;99.90;;;;;;5098486;28;20024;-75
2022/08/05 04:38:16;;;;;;;3.40;0.85;;;18.00;99.90;;;;;;5097799;28;20016;-75
2022/08/05 04:40:42;;;;;;;1.15;0.28;;;18.00;99.90;;;;;;5096665;28;20024;-75
2022/08/05 04:43:07;;;;;;;4.18;0.10;;;17.90;99.90;;;;;;5096630;28;20025;-75
2022/08/05 04:45:33;;;;;;;0.25;0.00;;;17.90;99.90;;;;;;5097844;28;20048;-75
2022/08/05 04:48:07;;;;;;;2.35;0.13;;;17.80;99.90;;;;;;5097621;28;20024;-75
2022/08/05 04:50:41;;;;;;;1.10;0.30;;;17.80;99.90;;;;;;5096027;28;20047;-75
2022/08/05 04:53:08;;;;;;;1.60;0.25;;;17.80;99.90;;;;;;5096399;28;20043;-75
2022/08/05 04:55:38;;;;;;;0.55;0.20;;;17.70;99.90;;;;;;5097985;28;20020;-75
2022/08/05 04:58:05;;;;;;;0.43;0.00;;;17.60;99.90;;;;;;5097735;28;20074;-75
2022/08/05 05:00:35;;;;;;;2.97;0.10;;;18.50;99.90;;;;;;5097729;28;20416;-75
2022/08/05 05:03:01;;;;;;;1.25;0.00;;;17.50;99.90;;;;;;5096268;28;20477;-75
2022/08/05 05:05:28;;;;;;;1.40;0.00;;;17.50;99.90;;;;;;5096363;28;20453;-75
2022/08/05 05:08:08;;;;;;;1.58;0.00;;;17.40;99.90;;;;;;5097185;28;20099;-75
2022/08/05 05:10:42;;;;;;;0.82;0.10;;;17.30;99.90;;;;;;5097630;28;20168;-75
2022/08/05 05:13:13;;;;;;;1.60;0.10;;;17.20;99.90;;;;;;5096205;28;20047;-75
2022/08/05 05:15:39;;;;;;;2.25;0.05;;;18.70;99.90;;;;;;5096103;28;20051;-75
2022/08/05 05:18:05;;;;;;;1.40;0.10;;;17.20;99.90;;;;;;5097034;28;20024;-75
2022/08/05 05:20:31;;;;;;;1.80;0.57;;;17.20;99.90;;;;;;5097032;28;20028;-75
2022/08/05 05:22:58;;;;;;;1.52;0.15;;;17.30;99.90;;;;;;5097170;28;20427;-75
2022/08/05 05:25:25;;;;;;;1.42;0.52;;;17.20;99.90;;;;;;5095972;28;20452;-75
2022/08/05 05:27:54;;;;;;;3.58;0.00;;;17.30;99.90;;;;;;5096971;28;20028;-75
2022/08/05 05:30:21;;;;;;;1.92;0.55;;;17.30;99.90;;;;;;5097631;28;20077;-75
2022/08/05 05:32:46;;;;;;;4.65;0.35;;;17.40;99.90;;;;;;5096831;28;20020;-75
2022/08/05 05:35:12;;;;;;;2.17;0.17;;;17.50;99.90;;;;;;5095764;28;20107;-75
2022/08/05 05:37:53;;;;;;;2.55;0.28;;;17.60;99.90;;;;;;5097176;28;20016;-75
2022/08/05 05:40:22;;;;;;;3.03;0.20;;;17.70;99.90;;;;;;5096914;28;20020;-75
2022/08/05 05:42:49;;;;;;;3.63;0.20;;;17.60;99.90;;;;;;5096303;28;20047;-75
2022/08/05 05:45:16;;;;;;;2.85;0.52;;;17.70;99.90;;;;;;5096597;28;20020;-75
2022/08/05 05:47:42;;;;;;;1.95;0.20;;;17.70;99.90;;;;;;5095500;28;20024;-75
2022/08/05 05:50:10;;;;;;;4.07;0.10;;;17.80;99.90;;;;;;5095133;28;20027;-75
2022/08/05 05:52:36;;;;;;;3.63;0.13;;;17.90;99.90;;;;;;5096608;28;20039;-75
2022/08/05 05:55:04;;;;;;;3.10;0.32;;;18.00;99.90;;;;;;5095308;28;20035;-75
2022/08/05 05:57:30;;;;;;;7.38;0.75;;;18.00;99.90;;;;;;5097043;28;20359;-75
2022/08/05 05:59:55;;;;;;;1.08;0.20;;;18.10;99.90;;;;;;5096318;28;20027;-75
2022/08/05 06:02:21;;;;;;;3.97;0.17;;;18.20;99.90;;;;;;5096358;28;20575;-75
2022/08/05 06:04:46;;;;;;;2.33;0.00;;;18.30;99.90;;;;;;5096330;28;20047;-75
2022/08/05 06:07:12;;;;;;;0.40;0.00;;;18.40;99.90;;;;;;5096672;28;20028;-75
2022/08/05 06:09:37;;;;;;;1.45;0.00;;;18.50;99.90;;;;;;5095980;28;20408;-75
2022/08/05 06:12:03;;;;;;;2.80;0.30;;;18.50;99.90;;;;;;5096108;28;20025;-75
2022/08/05 06:14:30;;;;;;;2.50;0.10;;;18.50;99.90;;;;;;5094904;28;20013;-75
2022/08/05 06:16:56;;;;;;;1.95;0.00;;;18.40;99.90;;;;;;5094936;28;20040;-75
2022/08/05 06:19:21;;;;;;;3.30;0.00;;;18.40;99.90;;;;;;5094795;28;20031;-75
2022/08/05 06:21:47;;;;;;;0.47;0.00;;;18.40;99.90;;;;;;5095968;28;20028;-75
2022/08/05 06:24:12;;;;;;;1.05;0.10;;;18.70;99.90;;;;;;5094630;28;20106;-75
2022/08/05 06:26:41;;;;;;;1.60;0.10;;;18.70;99.90;;;;;;5095791;28;20031;-75
2022/08/05 06:29:07;;;;;;;0.85;0.00;;;18.80;99.90;;;;;;5095825;28;20020;-75
2022/08/05 06:31:32;;;;;;;0.63;0.00;;;18.80;99.90;;;;;;5094727;28;20047;-75
2022/08/05 06:33:58;;;;;;;2.15;0.00;;;19.00;99.90;;;;;;5094601;28;20123;-75
2022/08/05 06:36:23;;;;;;;2.30;0.00;;;19.10;99.90;;;;;;5095811;28;20033;-75
2022/08/05 06:38:53;;;;;;;1.48;0.00;;;19.20;99.90;;;;;;5095658;28;20016;-75
2022/08/05 06:41:19;;;;;;;0.25;0.00;;;19.10;99.90;;;;;;5095512;28;20016;-75
2022/08/05 06:43:45;;;;;;;2.75;0.43;;;19.30;99.90;;;;;;5095491;28;20055;-75
2022/08/05 06:46:10;;;;;;;0.25;0.00;;;19.30;99.90;;;;;;5095641;28;20020;-75
2022/08/05 06:48:36;;;;;;;1.85;0.00;;;19.40;99.90;;;;;;5095348;28;20032;-75
2022/08/05 06:51:03;;;;;;;3.92;0.47;;;19.50;99.90;;;;;;5095586;28;20024;-75
2022/08/05 06:53:28;;;;;;;0.00;0.00;;;19.70;99.90;;;;;;5093169;28;20138;-75
2022/08/05 06:55:58;;;;;;;0.85;0.10;;;19.90;99.90;;;;;;5095389;28;20048;-75
2022/08/05 06:58:24;;;;;;;0.40;0.00;;;20.00;99.90;;;;;;5093825;28;20377;-75
2022/08/05 07:00:50;;;;;;;0.90;0.00;;;20.20;99.90;;;;;;5095022;28;20027;-75
2022/08/05 07:03:16;;;;;;;0.20;0.00;;;20.30;99.90;;;;;;5095042;28;20021;-75
2022/08/05 07:05:41;;;;;;;1.65;0.00;;;20.30;99.90;;;;;;5095045;28;20050;-75
2022/08/05 07:08:07;;;;;;;0.90;0.00;;;20.50;99.90;;;;;;5093778;28;20054;-75
2022/08/05 07:10:34;;;;;;;0.35;0.00;;;20.90;99.90;;;;;;5106249;22;20044;-86
2022/08/05 07:18:27;;;;;;;0.10;0.00;;;20.80;99.90;;;;;;5094454;28;20074;-77
2022/08/05 07:20:53;;;;;;;0.35;0.00;;;20.90;99.90;;;;;;5094184;28;20020;-77
2022/08/05 07:23:18;;;;;;;0.98;0.00;;;20.90;99.90;;;;;;5094236;28;20136;-77
2022/08/05 07:25:44;;;;;;;5.40;0.00;;;20.90;99.90;;;;;;5094869;28;20434;-77
2022/08/05 07:28:10;;;;;;;1.63;0.00;;;21.00;99.90;;;;;;5094287;28;20031;-77
2022/08/05 07:30:36;;;;;;;1.45;0.00;;;21.00;99.90;;;;;;5094067;28;20113;-77
2022/08/05 07:33:04;;;;;;;0.17;0.00;;;21.00;99.90;;;;;;5094054;28;20492;-77
2022/08/05 07:35:30;;;;;;;2.70;0.00;;;21.00;99.90;;;;;;5094691;28;20020;-77
2022/08/05 07:37:55;;;;;;;1.35;0.00;;;21.10;99.90;;;;;;5094372;28;20020;-77
2022/08/05 07:40:21;;;;;;;1.33;0.00;;;21.20;99.90;;;;;;5094006;28;20392;-77
2022/08/05 07:42:48;;;;;;;0.55;0.00;;;21.20;99.90;;;;;;5094025;28;20366;-77
2022/08/05 07:45:14;;;;;;;3.08;0.22;;;21.20;99.90;;;;;;5093953;28;20473;-77
2022/08/05 07:47:40;;;;;;;1.65;0.00;;;21.30;99.90;;;;;;5092658;28;20469;-77
2022/08/05 07:50:07;;;;;;;0.00;0.00;;;21.50;99.90;;;;;;5093837;28;20118;-77
2022/08/05 07:52:40;;;;;;;0.40;0.00;;;21.60;99.70;;;;;;5093691;28;20054;-77
2022/08/05 07:55:07;;;;;;;0.32;0.00;;;21.60;99.80;;;;;;5092820;28;20048;-77
2022/08/05 07:57:33;;;;;;;0.95;0.00;;;21.70;99.30;;;;;;5092387;28;20388;-77
2022/08/05 07:59:58;;;;;;;0.28;0.00;;;21.80;97.40;;;;;;5092614;28;20042;-77
2022/08/05 08:02:25;;;;;;;0.00;0.00;;;21.90;98.70;;;;;;5093854;28;20027;-77
2022/08/05 08:04:51;;;;;;;0.35;0.00;;;21.90;98.40;;;;;;5093701;28;20036;-77
2022/08/05 08:07:17;;;;;;;0.43;0.00;;;22.10;99.50;;;;;;5092466;28;20026;-77
2022/08/05 08:09:43;;;;;;;2.42;0.20;;;22.20;99.20;;;;;;5093681;28;20077;-77
2022/08/05 08:12:09;;;;;;;2.28;0.00;;;22.40;98.70;;;;;;5092419;28;20032;-78
2022/08/05 08:14:34;;;;;;;0.00;0.00;;;22.50;97.90;;;;;;5093396;28;20065;-77
2022/08/05 08:17:00;;;;;;;0.28;0.00;;;22.40;95.20;;;;;;5093487;28;20469;-77
2022/08/05 08:19:25;;;;;;;0.30;0.00;;;22.30;94.60;;;;;;5093372;28;20031;-77
2022/08/05 08:21:51;;;;;;;0.30;0.00;;;22.20;94.50;;;;;;5093612;28;20024;-77
2022/08/05 08:24:16;;;;;;;0.03;0.00;;;22.30;93.60;;;;;;5092239;28;20028;-77
2022/08/05 08:26:42;;;;;;;1.70;0.15;;;22.50;93.20;;;;;;5093744;28;20024;-77
2022/08/05 08:29:07;;;;;;;0.57;0.00;;;22.90;93.50;;;;;;5094025;28;20036;-77
2022/08/05 08:31:33;;;;;;;0.03;0.00;;;23.00;92.70;;;;;;5092201;28;20409;-77
2022/08/05 08:33:59;;;;;;;0.85;0.00;;;23.30;92.40;;;;;;5093512;28;20023;-77
2022/08/05 08:36:24;;;;;;;0.85;0.00;;;23.50;90.90;;;;;;5093425;28;20019;-77
2022/08/05 08:38:53;;;;;;;2.17;0.28;;;23.60;91.40;;;;;;5093373;28;20032;-77
2022/08/05 08:41:21;;;;;;;1.20;0.00;;;23.70;88.60;;;;;;5091999;28;20028;-77
2022/08/05 08:43:48;;;;;;;2.35;0.00;;;23.60;86.90;;;;;;5093432;28;20465;-77
2022/08/05 08:46:14;;;;;;;1.85;0.00;;;23.40;87.20;;;;;;5092006;28;20439;-77
2022/08/05 08:48:43;;;;;;;2.20;0.00;;;23.30;88.40;;;;;;5093929;28;20032;-77
2022/08/05 08:51:08;;;;;;;8.10;0.00;;;23.10;90.20;;;;;;5093365;28;20119;-77
2022/08/05 08:53:38;;;;;;;0.82;0.00;;;23.10;91.30;;;;;;5092053;28;20048;-77
2022/08/05 08:56:04;;;;;;;0.70;0.03;;;23.10;91.50;;;;;;5093162;28;20389;-77
2022/08/05 08:58:30;;;;;;;0.13;0.00;;;23.10;92.10;;;;;;5093634;28;20161;-77
2022/08/05 09:00:56;;;;;;;0.10;0.00;;;23.10;89.10;;;;;;5091920;28;20028;-77
2022/08/05 09:03:23;;;;;;;0.25;0.00;;;23.10;90.20;;;;;;5091858;28;20021;-77
2022/08/05 09:05:49;;;;;;;0.20;0.00;;;23.50;91.40;;;;;;5091905;28;20043;-78
2022/08/05 09:08:16;;;;;;;1.70;0.00;;;23.00;92.50;;;;;;5091919;28;20020;-78
2022/08/05 09:10:43;;;;;;;1.10;0.00;;;23.10;91.20;;;;;;5091667;28;20050;-77
2022/08/05 09:13:12;;;;;;;3.92;0.00;;;23.30;92.40;;;;;;5092856;28;20024;-77
2022/08/05 09:15:38;;;;;;;0.00;0.00;;;23.50;92.30;;;;;;5091767;28;20048;-77
2022/08/05 09:18:10;;;;;;;0.17;0.00;;;23.70;92.20;;;;;;5096492;28;20077;-77
2022/08/05 09:20:36;;;;;;;0.43;0.00;;;23.90;91.30;;;;;;5095379;28;20024;-77
2022/08/05 09:23:02;;;;;;;0.57;0.00;;;24.10;90.50;;;;;;5096547;28;20055;-77
2022/08/05 09:25:28;;;;;;;1.10;0.00;;;24.10;84.00;;;;;;5096602;28;20385;-77
2022/08/05 09:27:54;;;;;;;1.55;0.05;;;23.90;81.10;;;;;;5096619;28;20481;-77
2022/08/05 09:30:20;;;;;;;1.83;0.00;;;23.80;82.20;;;;;;5096597;28;20141;-77
2022/08/05 09:32:45;;;;;;;1.65;0.20;;;23.60;82.70;;;;;;5095368;28;20516;-78
2022/08/05 09:35:13;;;;;;;1.98;0.00;;;23.50;84.40;;;;;;5094952;28;20499;-78
2022/08/05 09:37:50;;;;;;;0.43;0.00;;;23.30;84.30;;;;;;5096255;28;20148;-78
2022/08/05 09:40:40;;;;;;;0.35;0.00;;;23.00;86.00;;;;;;5094897;28;20048;-78
2022/08/05 09:43:09;;;;;;;0.32;0.10;;;22.80;86.50;;;;;;5094934;28;20389;-78
2022/08/05 09:45:35;;;;;;;1.23;0.00;;;22.70;88.30;;;;;;5094875;28;20393;-78
2022/08/05 09:48:28;;;;;;;0.43;0.00;;;22.50;88.80;;;;;;5096027;28;20035;-77
2022/08/05 09:50:59;;;;;;;1.45;0.00;;;22.30;89.50;;;;;;5095695;28;20024;-78
2022/08/05 09:53:26;;;;;;;1.65;0.00;;;22.20;90.30;;;;;;5096449;28;20058;-78
2022/08/05 09:55:54;;;;;;;4.05;0.00;;;22.00;90.20;;;;;;5096014;28;20015;-78
2022/08/05 09:58:20;;;;;;;2.08;0.00;;;22.00;91.80;;;;;;5095805;28;20032;-78
2022/08/05 10:01:03;;;;;;;0.73;0.00;;;22.00;92.30;;;;;;5096119;28;20377;-77
2022/08/05 10:03:29;;;;;;;0.43;0.00;;;22.10;91.60;;;;;;5096102;28;20051;-77
2022/08/05 10:06:07;;;;;;;0.43;0.00;;;22.20;90.70;;;;;;5095709;28;20031;-77
2022/08/05 10:08:34;;;;;;;0.93;0.10;;;22.30;91.00;;;;;;5095998;28;20024;-77
2022/08/05 10:11:03;;;;;;;3.83;0.00;;;22.50;91.40;;;;;;5094346;28;20070;-77
2022/08/05 10:13:37;;;;;;;0.63;0.10;;;22.50;90.40;;;;;;5095394;28;20036;-77
2022/08/05 10:16:25;;;;;;;1.95;0.00;;;22.60;88.10;;;;;;5095607;28;20065;-78
2022/08/05 10:18:52;;;;;;;2.33;0.00;;;22.80;86.60;;;;;;5095515;28;20031;-78
2022/08/05 10:21:17;;;;;;;1.17;0.00;;;22.80;85.10;;;;;;5095495;28;20024;-77
2022/08/05 10:23:44;;;;;;;0.13;0.00;;;23.00;86.90;;;;;;5095353;28;20508;-77
2022/08/05 10:26:13;;;;;;;0.22;0.00;;;23.20;82.20;;;;;;5094112;28;20031;-77
2022/08/05 10:28:40;;;;;;;0.38;0.00;;;23.60;79.20;;;;;;5095237;28;20036;-77
2022/08/05 10:31:06;;;;;;;0.00;0.00;;;23.30;69.50;;;;;;5095372;28;20384;-76
2022/08/05 10:33:33;;;;;;;1.38;0.00;;;23.40;70.10;;;;;;5095393;28;20020;-76
2022/08/05 10:36:03;;;;;;;0.17;0.00;;;23.40;68.10;;;;;;5094183;28;20400;-76
2022/08/05 10:38:30;;;;;;;0.65;0.00;;;23.40;65.00;;;;;;5095885;28;20029;-76
2022/08/05 10:41:26;;;;;;;0.00;0.00;;;23.40;66.70;;;;;;5095235;28;20055;-76
2022/08/05 10:43:52;;;;;;;0.00;0.00;;;23.40;66.70;;;;;;5093997;28;20020;-76
2022/08/05 10:46:22;;;;;;;0.13;0.00;;;23.50;68.50;;;;;;5095521;28;20437;-76
2022/08/05 10:48:49;;;;;;;0.00;0.00;;;23.60;67.20;;;;;;5093604;28;20089;-76
2022/08/05 10:51:19;;;;;;;0.22;0.00;;;23.80;66.30;;;;;;5095189;28;20380;-76
2022/08/05 10:53:56;;;;;;;0.50;0.00;;;23.80;63.80;;;;;;5093751;28;20016;-76
2022/08/05 10:56:25;;;;;;;2.83;0.32;;;23.90;64.70;;;;;;5094886;28;20044;-76
2022/08/05 10:58:57;;;;;;;0.55;0.10;;;24.10;62.20;;;;;;5094899;28;20137;-76
2022/08/05 11:01:31;;;;;;;1.30;0.00;;;24.50;65.30;;;;;;5094976;28;20062;-76
2022/08/05 11:04:07;;;;;;;0.00;0.00;;;24.90;65.80;;;;;;5094566;28;20388;-76
2022/08/05 11:06:35;;;;;;;0.50;0.00;;;25.30;65.10;;;;;;5095241;28;20028;-76
2022/08/05 11:09:17;;;;;;;0.00;0.00;;;25.80;63.50;;;;;;5094784;28;20035;-76
2022/08/05 11:11:48;;;;;;;0.25;0.00;;;26.00;60.40;;;;;;5095014;28;20024;-76
2022/08/05 11:14:26;;;;;;;0.35;0.00;;;26.00;60.70;;;;;;5094570;28;20039;-76
2022/08/05 11:17:28;;;;;;;1.33;0.10;;;25.80;58.50;;;;;;5093098;28;20020;-76
2022/08/05 11:19:56;;;;;;;4.05;0.00;;;25.60;62.20;;;;;;5092153;28;20431;-76
2022/08/05 11:22:41;;;;;;;0.00;0.00;;;25.50;60.00;;;;;;5094029;28;20028;-76
2022/08/05 11:25:34;;;;;;;0.40;0.00;;;25.30;59.70;;;;;;5093172;28;20077;-76
2022/08/05 11:28:10;;;;;;;0.15;0.13;;;25.20;60.90;;;;;;5094604;28;20032;-76
2022/08/05 11:30:54;;;;;;;0.60;0.00;;;25.00;59.80;;;;;;5094091;28;20047;-76
2022/08/05 11:33:32;;;;;;;0.55;0.00;;;24.90;60.10;;;;;;5093973;28;20499;-76
2022/08/05 11:35:59;;;;;;;0.00;0.00;;;25.00;62.00;;;;;;5092925;28;20056;-76
2022/08/05 11:38:40;;;;;;;0.20;0.00;;;25.10;60.50;;;;;;5094147;28;20389;-76
2022/08/05 11:41:06;;;;;;;0.15;0.00;;;25.10;57.20;;;;;;5092811;28;20017;-76
2022/08/05 11:43:33;;;;;;;0.20;0.00;;;25.10;57.60;;;;;;5094086;28;20017;-76
2022/08/05 11:46:00;;;;;;;0.00;0.00;;;25.10;57.90;;;;;;5093815;28;20051;-76
2022/08/05 11:48:27;;;;;;;1.75;0.00;;;25.20;59.40;;;;;;5093973;28;20024;-76
2022/08/05 11:50:53;;;;;;;0.30;0.00;;;25.30;60.10;;;;;;5093806;28;20089;-76
2022/08/05 11:53:20;;;;;;;1.00;0.15;;;25.40;61.20;;;;;;5093926;28;20031;-76
2022/08/05 11:55:58;;;;;;;0.55;0.00;;;25.40;62.60;;;;;;5093832;28;20031;-77
2022/08/05 11:58:45;;;;;;;2.05;0.00;;;25.50;62.00;;;;;;5094025;28;20016;-77
2022/08/05 12:01:13;;;;;;;0.57;0.15;;;25.50;64.70;;;;;;5093750;28;20028;-77
2022/08/05 12:03:53;;;;;;;2.75;0.30;;;25.40;64.40;;;;;;5092511;28;20024;-77
2022/08/05 12:06:31;;;;;;;2.10;0.20;;;25.00;64.20;;;;;;5092339;28;20118;-77
2022/08/05 12:08:58;;;;;;;0.45;0.00;;;24.80;67.60;;;;;;5092338;28;20542;-77
2022/08/05 12:11:29;;;;;;;0.25;0.00;;;24.60;67.90;;;;;;5093823;28;20039;-77
2022/08/05 12:14:00;;;;;;;0.25;0.00;;;24.50;69.10;;;;;;5092575;28;20035;-77
2022/08/05 12:16:28;;;;;;;0.15;0.15;;;24.40;68.90;;;;;;5093511;28;20021;-77
2022/08/05 12:18:54;;;;;;;1.60;0.00;;;24.50;69.60;;;;;;5093551;28;20385;-78
2022/08/05 12:21:30;;;;;;;0.28;0.10;;;24.60;70.10;;;;;;5093731;28;20385;-78
2022/08/05 12:23:59;;;;;;;0.25;0.00;;;24.80;70.50;;;;;;5093985;28;20346;-78
2022/08/05 12:26:29;;;;;;;;;;;25.00;68.50;;;;;;5094165;28;20493;-78
2022/08/05 12:28:55;;;;;;;0.45;0.00;;;25.30;67.10;;;;;;5093373;28;19958;-78
2022/08/05 12:31:21;;;;;;;0.00;0.00;;;25.60;67.60;;;;;;5092163;28;20028;-78
2022/08/05 12:33:47;;;;;;;0.57;0.00;;;25.80;66.50;;;;;;5093908;28;20016;-77
2022/08/05 12:36:14;;;;;;;0.05;0.00;;;26.00;66.10;;;;;;5093297;28;20020;-77
2022/08/05 12:38:40;;;;;;;1.02;0.00;;;26.20;67.60;;;;;;5093405;28;20024;-77
2022/08/05 12:41:11;;;;;;;0.35;0.00;;;26.20;66.30;;;;;;5093204;28;20066;-77
2022/08/05 12:43:53;;;;;;;0.05;0.00;;;26.60;66.30;;;;;;5093291;28;20024;-77
2022/08/05 12:46:24;;;;;;;2.05;0.00;;;26.90;67.50;;;;;;5093244;28;20024;-77
2022/08/05 12:49:16;;;;;;;0.00;0.00;;;27.10;64.60;;;;;;5093303;28;20035;-77
2022/08/05 12:51:45;;;;;;;1.05;0.00;;;27.20;61.90;;;;;;5094611;28;20027;-77
2022/08/05 12:54:22;;;;;;;2.05;0.00;;;27.70;59.30;;;;;;5097147;28;20085;-77
2022/08/05 12:56:54;;;;;;;1.50;0.00;;;27.90;57.80;;;;;;5097179;28;20020;-77
2022/08/05 12:59:22;;;;;;;0.65;0.00;;;27.90;56.30;;;;;;5097586;28;20495;-77
2022/08/05 13:01:59;;;;;;;1.73;0.00;;;28.10;58.30;;;;;;5097244;28;20407;-77
2022/08/05 13:04:38;;;;;;;2.35;0.00;;;28.40;56.90;;;;;;5095696;28;20035;-77